SWA1215 KDCA-KATL
Flight info
| Callsign | SWA1215 |
|---|---|
| Flight time | N/A |
| Altitude | 28000 |
| Route | CLTCH3 FLASK OZZZI2 |
| Aircraft | B737/M-V/N |
Departure
| Time | 2026-05-08 02:19 |
|---|---|
| Airport | Ronald Reagan Washington National Airport (KDCA) |
Arrival
| Time | N/A |
|---|---|
| Airport | Hartsfield Jackson Atlanta International Airport (KATL) |
| Time | Latitude | Longitude | Altitude | Speed | Heading |
|---|---|---|---|---|---|
| 2026-05-08 01:55 | 38.84723 | -77.04215 | 22 ft | 0 kts | 232° |
| 2026-05-08 02:09 | 38.84724 | -77.04212 | 22 ft | 3 kts | 231° |
| 2026-05-08 02:09 | 38.84743 | -77.04191 | 23 ft | 4 kts | 194° |
| 2026-05-08 02:10 | 38.84768 | -77.04193 | 23 ft | 3 kts | 150° |
| 2026-05-08 02:10 | 38.84771 | -77.04195 | 23 ft | 1 kts | 148° |
| 2026-05-08 02:12 | 38.84770 | -77.04194 | 23 ft | 3 kts | 148° |
| 2026-05-08 02:12 | 38.84731 | -77.04164 | 23 ft | 8 kts | 150° |
| 2026-05-08 02:13 | 38.84675 | -77.04133 | 26 ft | 9 kts | 155° |
| 2026-05-08 02:13 | 38.84615 | -77.04098 | 22 ft | 10 kts | 155° |
| 2026-05-08 02:13 | 38.84611 | -77.04036 | 22 ft | 9 kts | 18° |
| 2026-05-08 02:13 | 38.84681 | -77.04010 | 20 ft | 12 kts | 25° |
| 2026-05-08 02:14 | 38.84762 | -77.03961 | 21 ft | 13 kts | 25° |
| 2026-05-08 02:14 | 38.84849 | -77.03945 | 18 ft | 13 kts | 2° |
| 2026-05-08 02:14 | 38.84923 | -77.03894 | 16 ft | 13 kts | 0° |
| 2026-05-08 02:14 | 38.85009 | -77.03902 | 17 ft | 12 kts | 354° |
| 2026-05-08 02:15 | 38.85093 | -77.03910 | 18 ft | 12 kts | 356° |
| 2026-05-08 02:15 | 38.85174 | -77.03919 | 18 ft | 12 kts | 354° |
| 2026-05-08 02:15 | 38.85257 | -77.03928 | 18 ft | 13 kts | 355° |
| 2026-05-08 02:15 | 38.85348 | -77.03937 | 19 ft | 13 kts | 355° |
| 2026-05-08 02:16 | 38.85437 | -77.03947 | 21 ft | 13 kts | 354° |
| 2026-05-08 02:16 | 38.85523 | -77.03958 | 22 ft | 12 kts | 354° |
| 2026-05-08 02:16 | 38.85607 | -77.03965 | 23 ft | 12 kts | 357° |
| 2026-05-08 02:16 | 38.85691 | -77.03972 | 25 ft | 13 kts | 356° |
| 2026-05-08 02:17 | 38.85779 | -77.03981 | 27 ft | 13 kts | 355° |
| 2026-05-08 02:17 | 38.85865 | -77.03988 | 25 ft | 12 kts | 357° |
| 2026-05-08 02:17 | 38.85949 | -77.03978 | 23 ft | 12 kts | 16° |
| 2026-05-08 02:17 | 38.86028 | -77.03947 | 21 ft | 12 kts | 16° |
| 2026-05-08 02:18 | 38.86083 | -77.03889 | 19 ft | 11 kts | 104° |
| 2026-05-08 02:18 | 38.86003 | -77.03859 | 20 ft | 24 kts | 175° |
| 2026-05-08 02:18 | 38.85523 | -77.03808 | 24 ft | 112 kts | 175° |
| 2026-05-08 02:18 | 38.84492 | -77.03700 | 140 ft | 176 kts | 176° |
| 2026-05-08 02:19 | 38.83174 | -77.03587 | 841 ft | 203 kts | 177° |
| 2026-05-08 02:19 | 38.81685 | -77.03536 | 1523 ft | 225 kts | 181° |
| 2026-05-08 02:19 | 38.80064 | -77.03535 | 2198 ft | 239 kts | 183° |
| 2026-05-08 02:19 | 38.78339 | -77.03543 | 2684 ft | 256 kts | 182° |
| 2026-05-08 02:20 | 38.76564 | -77.03932 | 3330 ft | 263 kts | 209° |
| 2026-05-08 02:20 | 38.75225 | -77.05459 | 4193 ft | 258 kts | 242° |
| 2026-05-08 02:20 | 38.74688 | -77.07608 | 5079 ft | 253 kts | 266° |
| 2026-05-08 02:20 | 38.74565 | -77.09855 | 5992 ft | 254 kts | 269° |
| 2026-05-08 02:21 | 38.74455 | -77.12126 | 6854 ft | 256 kts | 268° |
| 2026-05-08 02:21 | 38.74011 | -77.14323 | 7700 ft | 262 kts | 248° |
| 2026-05-08 02:21 | 38.73166 | -77.16373 | 8687 ft | 259 kts | 248° |
| 2026-05-08 02:21 | 38.72382 | -77.18453 | 9619 ft | 258 kts | 249° |
| 2026-05-08 02:22 | 38.71614 | -77.20535 | 10428 ft | 261 kts | 248° |
| 2026-05-08 02:22 | 38.70817 | -77.22729 | 10665 ft | 284 kts | 249° |
| 2026-05-08 02:22 | 38.70021 | -77.25157 | 10857 ft | 307 kts | 250° |
| 2026-05-08 02:22 | 38.69195 | -77.27785 | 11039 ft | 329 kts | 251° |
| 2026-05-08 02:23 | 38.68321 | -77.30579 | 11312 ft | 345 kts | 250° |
| 2026-05-08 02:23 | 38.67417 | -77.33450 | 11953 ft | 349 kts | 250° |
| 2026-05-08 02:23 | 38.66503 | -77.36331 | 12797 ft | 349 kts | 250° |
| 2026-05-08 02:23 | 38.65590 | -77.39202 | 13620 ft | 349 kts | 249° |
| 2026-05-08 02:24 | 38.64669 | -77.42089 | 14284 ft | 351 kts | 249° |
| 2026-05-08 02:24 | 38.63742 | -77.44993 | 14932 ft | 353 kts | 249° |
| 2026-05-08 02:24 | 38.62814 | -77.47892 | 15633 ft | 353 kts | 249° |
| 2026-05-08 02:24 | 38.61883 | -77.50801 | 16307 ft | 354 kts | 250° |
| 2026-05-08 02:25 | 38.60948 | -77.53717 | 16946 ft | 355 kts | 250° |
| 2026-05-08 02:25 | 38.60010 | -77.56640 | 17583 ft | 356 kts | 250° |
| 2026-05-08 02:25 | 38.59067 | -77.59576 | 18200 ft | 358 kts | 250° |
| 2026-05-08 02:25 | 38.58118 | -77.62527 | 18732 ft | 359 kts | 250° |
| 2026-05-08 02:26 | 38.57167 | -77.65483 | 19269 ft | 360 kts | 250° |
| 2026-05-08 02:26 | 38.56213 | -77.68447 | 19798 ft | 361 kts | 250° |
| 2026-05-08 02:26 | 38.55265 | -77.71387 | 20292 ft | 363 kts | 250° |
| 2026-05-08 02:26 | 38.54301 | -77.74373 | 20789 ft | 364 kts | 250° |
| 2026-05-08 02:27 | 38.53332 | -77.77367 | 21280 ft | 365 kts | 250° |
| 2026-05-08 02:27 | 38.52129 | -77.80253 | 21651 ft | 375 kts | 239° |
| 2026-05-08 02:27 | 38.50354 | -77.82760 | 22118 ft | 381 kts | 231° |
| 2026-05-08 02:27 | 38.48534 | -77.85183 | 22766 ft | 377 kts | 234° |
| 2026-05-08 02:28 | 38.46770 | -77.87680 | 23037 ft | 382 kts | 234° |
| 2026-05-08 02:28 | 38.44992 | -77.90221 | 23342 ft | 385 kts | 235° |
| 2026-05-08 02:28 | 38.43317 | -77.92875 | 23721 ft | 382 kts | 239° |
| 2026-05-08 02:28 | 38.41779 | -77.95632 | 24117 ft | 381 kts | 241° |
| 2026-05-08 02:29 | 38.40282 | -77.98418 | 24470 ft | 381 kts | 241° |
| 2026-05-08 02:29 | 38.38784 | -78.01215 | 24754 ft | 383 kts | 241° |
| 2026-05-08 02:29 | 38.37267 | -78.04021 | 25056 ft | 385 kts | 241° |
| 2026-05-08 02:29 | 38.35738 | -78.06813 | 25515 ft | 382 kts | 241° |
| 2026-05-08 02:30 | 38.34222 | -78.09557 | 26104 ft | 377 kts | 241° |
| 2026-05-08 02:30 | 38.32714 | -78.12271 | 26641 ft | 373 kts | 241° |
| 2026-05-08 02:30 | 38.31216 | -78.14965 | 27052 ft | 373 kts | 241° |
| 2026-05-08 02:30 | 38.29736 | -78.17625 | 27410 ft | 373 kts | 242° |
| 2026-05-08 02:31 | 38.28233 | -78.20322 | 27792 ft | 373 kts | 242° |
| 2026-05-08 02:31 | 38.26735 | -78.23008 | 28006 ft | 374 kts | 242° |
| 2026-05-08 02:31 | 38.25219 | -78.25726 | 27890 ft | 376 kts | 242° |
| 2026-05-08 02:31 | 38.23715 | -78.28414 | 27964 ft | 372 kts | 242° |
| 2026-05-08 02:32 | 38.22218 | -78.31088 | 27946 ft | 370 kts | 242° |
| 2026-05-08 02:32 | 38.20720 | -78.33768 | 27941 ft | 373 kts | 242° |
| 2026-05-08 02:32 | 38.19217 | -78.36452 | 27991 ft | 372 kts | 242° |
| 2026-05-08 02:32 | 38.17712 | -78.39135 | 27930 ft | 374 kts | 242° |
| 2026-05-08 02:33 | 38.16174 | -78.41802 | 27990 ft | 374 kts | 240° |
| 2026-05-08 02:33 | 38.14597 | -78.44451 | 27943 ft | 376 kts | 240° |
| 2026-05-08 02:33 | 38.13009 | -78.47086 | 27967 ft | 376 kts | 240° |
| 2026-05-08 02:33 | 38.11418 | -78.49723 | 27967 ft | 376 kts | 240° |
| 2026-05-08 02:34 | 38.09829 | -78.52359 | 27943 ft | 376 kts | 240° |
| 2026-05-08 02:34 | 38.08243 | -78.54995 | 27971 ft | 375 kts | 240° |
| 2026-05-08 02:34 | 38.06661 | -78.57627 | 27942 ft | 376 kts | 240° |
| 2026-05-08 02:34 | 38.05079 | -78.60261 | 27966 ft | 375 kts | 240° |
| 2026-05-08 02:35 | 38.03520 | -78.62857 | 27943 ft | 375 kts | 240° |
| 2026-05-08 02:35 | 38.01941 | -78.65483 | 27962 ft | 374 kts | 240° |
| 2026-05-08 02:35 | 38.00363 | -78.68109 | 27945 ft | 374 kts | 240° |
| 2026-05-08 02:35 | 37.98788 | -78.70728 | 27954 ft | 374 kts | 240° |
| 2026-05-08 02:36 | 37.97213 | -78.73344 | 27947 ft | 373 kts | 240° |
| 2026-05-08 02:36 | 37.95637 | -78.75957 | 27955 ft | 373 kts | 240° |
| 2026-05-08 02:36 | 37.94061 | -78.78571 | 27939 ft | 373 kts | 240° |
| 2026-05-08 02:36 | 37.92484 | -78.81184 | 27957 ft | 373 kts | 240° |
| 2026-05-08 02:37 | 37.90907 | -78.83796 | 27934 ft | 374 kts | 240° |
| 2026-05-08 02:37 | 37.89328 | -78.86410 | 27954 ft | 374 kts | 240° |
| 2026-05-08 02:37 | 37.87744 | -78.89027 | 27945 ft | 374 kts | 240° |
| 2026-05-08 02:37 | 37.86158 | -78.91646 | 27949 ft | 374 kts | 240° |
| 2026-05-08 02:38 | 37.84579 | -78.94252 | 27940 ft | 374 kts | 240° |
| 2026-05-08 02:38 | 37.82993 | -78.96867 | 27968 ft | 374 kts | 240° |
| 2026-05-08 02:38 | 37.81407 | -78.99481 | 27935 ft | 376 kts | 240° |
| 2026-05-08 02:38 | 37.79814 | -79.02105 | 27963 ft | 375 kts | 240° |
| 2026-05-08 02:39 | 37.78223 | -79.04722 | 27938 ft | 376 kts | 240° |
| 2026-05-08 02:39 | 37.76627 | -79.07344 | 27992 ft | 375 kts | 240° |
| 2026-05-08 02:39 | 37.75033 | -79.09964 | 27949 ft | 377 kts | 240° |
| 2026-05-08 02:39 | 37.73437 | -79.12584 | 27998 ft | 376 kts | 240° |
| 2026-05-08 02:40 | 37.71842 | -79.15201 | 27964 ft | 376 kts | 240° |
| 2026-05-08 02:40 | 37.70250 | -79.17810 | 27992 ft | 375 kts | 240° |
| 2026-05-08 02:40 | 37.68660 | -79.20417 | 27998 ft | 374 kts | 240° |
| 2026-05-08 02:40 | 37.67619 | -79.22148 | 28038 ft | 373 kts | 240° |
| 2026-05-08 02:41 | 37.63996 | -79.28272 | 27964 ft | 376 kts | 241° |
| 2026-05-08 02:41 | 37.60878 | -79.33544 | 27975 ft | 375 kts | 241° |
| 2026-05-08 02:42 | 37.58283 | -79.37919 | 27966 ft | 375 kts | 241° |
| 2026-05-08 02:42 | 37.56721 | -79.40547 | 27973 ft | 374 kts | 241° |
| 2026-05-08 02:42 | 37.55160 | -79.43170 | 27960 ft | 374 kts | 241° |
| 2026-05-08 02:43 | 37.53599 | -79.45790 | 27956 ft | 374 kts | 240° |
| 2026-05-08 02:43 | 37.52037 | -79.48409 | 27986 ft | 373 kts | 240° |
| 2026-05-08 02:43 | 37.50476 | -79.51026 | 27953 ft | 373 kts | 240° |
| 2026-05-08 02:43 | 37.48917 | -79.53636 | 27999 ft | 373 kts | 240° |
| 2026-05-08 02:44 | 37.47358 | -79.56246 | 27959 ft | 373 kts | 240° |
| 2026-05-08 02:44 | 37.45797 | -79.58856 | 27939 ft | 374 kts | 240° |
| 2026-05-08 02:44 | 37.44225 | -79.61483 | 27997 ft | 374 kts | 240° |
| 2026-05-08 02:44 | 37.42654 | -79.64108 | 27955 ft | 376 kts | 240° |
| 2026-05-08 02:45 | 37.41079 | -79.66735 | 27978 ft | 376 kts | 240° |
| 2026-05-08 02:45 | 37.39501 | -79.69363 | 27985 ft | 377 kts | 240° |
| 2026-05-08 02:45 | 37.37942 | -79.71960 | 27972 ft | 377 kts | 240° |
| 2026-05-08 02:45 | 37.36360 | -79.74593 | 27977 ft | 377 kts | 240° |
| 2026-05-08 02:46 | 37.34778 | -79.77221 | 27989 ft | 377 kts | 240° |
| 2026-05-08 02:46 | 37.33200 | -79.79844 | 27969 ft | 376 kts | 241° |
| 2026-05-08 02:46 | 37.30047 | -79.85074 | 27979 ft | 376 kts | 240° |
| 2026-05-08 02:47 | 37.26914 | -79.90266 | 27989 ft | 375 kts | 240° |
| 2026-05-08 02:47 | 37.25338 | -79.92875 | 27992 ft | 375 kts | 240° |
| 2026-05-08 02:47 | 37.23759 | -79.95485 | 28010 ft | 374 kts | 240° |
| 2026-05-08 02:48 | 37.22185 | -79.98087 | 27978 ft | 376 kts | 240° |
| 2026-05-08 02:48 | 37.20606 | -80.00695 | 28006 ft | 375 kts | 240° |
| 2026-05-08 02:48 | 37.19029 | -80.03297 | 27974 ft | 375 kts | 240° |
| 2026-05-08 02:48 | 37.17444 | -80.05910 | 28004 ft | 375 kts | 240° |
| 2026-05-08 02:49 | 37.15864 | -80.08514 | 27965 ft | 376 kts | 240° |
| 2026-05-08 02:49 | 37.14281 | -80.11118 | 27999 ft | 374 kts | 240° |
| 2026-05-08 02:49 | 37.12700 | -80.13718 | 27990 ft | 375 kts | 240° |
| 2026-05-08 02:49 | 37.11119 | -80.16318 | 28023 ft | 374 kts | 240° |
| 2026-05-08 02:50 | 37.09540 | -80.18912 | 27993 ft | 375 kts | 240° |
| 2026-05-08 02:50 | 37.07957 | -80.21509 | 28014 ft | 374 kts | 241° |
| 2026-05-08 02:50 | 37.04802 | -80.26683 | 28001 ft | 374 kts | 241° |
| 2026-05-08 02:51 | 37.01632 | -80.31851 | 27999 ft | 376 kts | 239° |
| 2026-05-08 02:51 | 36.98059 | -80.36662 | 27988 ft | 382 kts | 234° |
| 2026-05-08 02:52 | 36.94291 | -80.41344 | 27986 ft | 382 kts | 234° |
| 2026-05-08 02:52 | 36.90544 | -80.46041 | 27973 ft | 381 kts | 235° |
| 2026-05-08 02:53 | 36.86837 | -80.50740 | 27982 ft | 379 kts | 235° |
| 2026-05-08 02:53 | 36.84991 | -80.53089 | 27994 ft | 379 kts | 235° |
| 2026-05-08 02:53 | 36.83145 | -80.55441 | 27997 ft | 378 kts | 235° |
| 2026-05-08 02:54 | 36.81302 | -80.57787 | 27994 ft | 378 kts | 235° |
| 2026-05-08 02:54 | 36.79489 | -80.60095 | 28003 ft | 377 kts | 235° |
| 2026-05-08 02:54 | 36.75806 | -80.64779 | 27996 ft | 378 kts | 235° |
| 2026-05-08 02:55 | 36.70286 | -80.71784 | 28029 ft | 377 kts | 236° |
| 2026-05-08 02:55 | 36.68446 | -80.74116 | 27994 ft | 378 kts | 236° |
| 2026-05-08 02:56 | 36.66606 | -80.76447 | 28030 ft | 377 kts | 236° |
| 2026-05-08 02:56 | 36.64765 | -80.78775 | 27984 ft | 378 kts | 236° |
| 2026-05-08 02:56 | 36.62922 | -80.81106 | 28025 ft | 377 kts | 235° |
| 2026-05-08 02:56 | 36.61082 | -80.83432 | 27981 ft | 378 kts | 235° |
| 2026-05-08 02:57 | 36.59238 | -80.85759 | 28019 ft | 377 kts | 235° |
| 2026-05-08 02:57 | 36.57395 | -80.88085 | 27972 ft | 378 kts | 236° |
| 2026-05-08 02:57 | 36.55574 | -80.90379 | 28008 ft | 377 kts | 236° |
| 2026-05-08 02:57 | 36.53730 | -80.92702 | 27957 ft | 377 kts | 236° |
| 2026-05-08 02:58 | 36.51890 | -80.95016 | 28016 ft | 375 kts | 236° |
| 2026-05-08 02:58 | 36.50055 | -80.97326 | 27963 ft | 376 kts | 236° |
| 2026-05-08 02:58 | 36.48217 | -80.99639 | 28021 ft | 376 kts | 236° |
| 2026-05-08 02:58 | 36.46378 | -81.01950 | 27990 ft | 377 kts | 236° |
| 2026-05-08 02:59 | 36.44537 | -81.04262 | 28018 ft | 376 kts | 236° |
| 2026-05-08 02:59 | 36.40857 | -81.08876 | 28015 ft | 376 kts | 236° |
| 2026-05-08 03:00 | 36.37176 | -81.13488 | 28027 ft | 377 kts | 236° |
| 2026-05-08 03:00 | 36.33483 | -81.18108 | 28019 ft | 378 kts | 236° |
| 2026-05-08 03:01 | 36.29776 | -81.22740 | 28007 ft | 379 kts | 235° |
| 2026-05-08 03:01 | 36.26059 | -81.27380 | 28020 ft | 380 kts | 236° |
| 2026-05-08 03:02 | 36.22363 | -81.31988 | 28019 ft | 379 kts | 236° |
| 2026-05-08 03:02 | 36.18646 | -81.36616 | 28029 ft | 378 kts | 236° |
| 2026-05-08 03:02 | 36.16791 | -81.38923 | 27982 ft | 378 kts | 236° |
| 2026-05-08 03:03 | 36.14941 | -81.41221 | 28014 ft | 376 kts | 236° |
| 2026-05-08 03:03 | 36.13096 | -81.43515 | 27966 ft | 377 kts | 236° |
| 2026-05-08 03:03 | 36.11245 | -81.45812 | 28009 ft | 375 kts | 236° |
| 2026-05-08 03:03 | 36.09400 | -81.48101 | 27989 ft | 375 kts | 236° |
| 2026-05-08 03:04 | 36.07577 | -81.50362 | 27978 ft | 375 kts | 236° |
| 2026-05-08 03:04 | 36.03894 | -81.54928 | 27974 ft | 375 kts | 236° |
| 2026-05-08 03:05 | 36.00210 | -81.59483 | 27992 ft | 375 kts | 236° |
| 2026-05-08 03:05 | 35.96532 | -81.64023 | 28060 ft | 373 kts | 236° |
| 2026-05-08 03:06 | 35.92860 | -81.68556 | 28053 ft | 374 kts | 236° |
| 2026-05-08 03:06 | 35.89165 | -81.73110 | 28028 ft | 376 kts | 236° |
| 2026-05-08 03:07 | 35.85457 | -81.77671 | 28026 ft | 377 kts | 236° |
| 2026-05-08 03:07 | 35.81739 | -81.82240 | 28016 ft | 377 kts | 236° |
| 2026-05-08 03:08 | 35.78016 | -81.86791 | 28013 ft | 375 kts | 235° |
| 2026-05-08 03:08 | 35.76156 | -81.89021 | 27997 ft | 373 kts | 235° |
| 2026-05-08 03:08 | 35.74290 | -81.91249 | 28002 ft | 373 kts | 235° |
| 2026-05-08 03:08 | 35.72424 | -81.93477 | 27982 ft | 374 kts | 235° |
| 2026-05-08 03:09 | 35.70556 | -81.95709 | 27994 ft | 374 kts | 235° |
| 2026-05-08 03:09 | 35.68691 | -81.97936 | 27989 ft | 374 kts | 235° |
| 2026-05-08 03:09 | 35.66822 | -82.00168 | 27991 ft | 375 kts | 236° |
| 2026-05-08 03:10 | 35.63105 | -82.04604 | 27991 ft | 374 kts | 235° |
| 2026-05-08 03:10 | 35.59370 | -82.09058 | 27987 ft | 375 kts | 235° |
| 2026-05-08 03:11 | 35.55629 | -82.13508 | 28005 ft | 374 kts | 235° |
| 2026-05-08 03:11 | 35.51898 | -82.17948 | 28008 ft | 374 kts | 235° |
| 2026-05-08 03:12 | 35.48165 | -82.22382 | 27997 ft | 373 kts | 235° |
| 2026-05-08 03:12 | 35.46299 | -82.24595 | 27985 ft | 372 kts | 235° |
| 2026-05-08 03:12 | 35.44441 | -82.26796 | 28031 ft | 371 kts | 235° |
| 2026-05-08 03:13 | 35.40750 | -82.31224 | 27989 ft | 372 kts | 236° |